Airfield :
LOGIN :

Register | Disclaimer

   EN    FR    IT 

 










Legend :    VFR   Marginal VFR   IFR   Intensive IFR   Very Intensive IFR
Visi :
Ceiling :
>= 8 km
>= 3000ft
5 to 8 km
1000 to 3000 ft
1500m to 5 km
500 to 1000 ft
800 to 1500m
200 to 500 ft
< 800m
< 200 ft
Symbols :   Thunderstorms  Fog  Heavy snow  Heavy precipitations  Wind > 20 kt
SIGMETs :     Misc.  Thunderstorms  Icing  Turbulence  Mountain Waves  Volcanic Ashes






- Airport Elevation : 257 ft
- IATA code : MAN


EGCC - Manchester

CURRENT METAR :
  • 261050Z AUTO VRB03KT 9999 NCD 03/00 Q1013

EXPIRED METARs :
  • 261020Z AUTO 15004KT 100V230 9999 NCD 02/00 Q1013 NOSIG
  • 260950Z AUTO 16004KT 100V220 9999 NCD 02/M00 Q1014
  • 260920Z AUTO 16005KT 100V220 9999 NCD 02/M00 Q1014
  • 260850Z AUTO 17004KT 120V220 9999 NCD 02/M00 Q1014 NOSIG
  • 260820Z AUTO 16004KT 080V210 9999 NCD 02/M00 Q1014

TAF AMD TAF EGCC
Valid from the 26 at 10:00 until the 27 at 12:00 UTC


261007Z 2610/2712 15007KT 9999 SCT040
BECMG 2610/2612 BKN012
TEMPO 2610/2622 7000 -RADZ BKN007
PROB40
TEMPO 2610/2621 3000 RA RADZ BKN003
BECMG 2620/2623 28010KT
TEMPO 2622/2712 BKN007
ATIS : +44 161 499 2324



MET'MAP, your aeronautical weather chart ! - Copyright ORBIFLY December 2007 - Disclaimer

ORBIFLY MET'MAP TEAM :

Programming & Development : Alexandra Zaïnal
Concept & original design : Baudouin d'Aumeries
Assistance for programming : Marc-Olivier Méhu
Technical & hardware support : Manuel Goepfert

Contact : metmap@orbifly.com




SOURCES & CREDITS :

   NOAA